createdAt,value
2022-11-04T00:01:22.703Z,100.00
2022-11-04T00:06:44.727Z,100.00
2022-11-04T00:12:06.533Z,100.00
2022-11-04T00:17:28.341Z,100.00
2022-11-04T00:22:50.192Z,100.00
2022-11-04T00:28:11.927Z,100.00
2022-11-04T00:33:33.758Z,100.00
2022-11-04T00:38:55.559Z,100.00
2022-11-04T00:44:17.351Z,100.00
2022-11-04T00:49:39.174Z,100.00
2022-11-04T00:55:01.007Z,100.00
2022-11-04T01:00:22.872Z,100.00
2022-11-04T01:05:44.707Z,100.00
2022-11-04T01:11:08.841Z,100.00
2022-11-04T01:16:31.684Z,100.00
2022-11-04T01:21:53.616Z,100.00
2022-11-04T01:27:15.435Z,100.00
2022-11-04T01:32:37.252Z,100.00
2022-11-04T01:37:59.423Z,100.00
2022-11-04T01:43:22.810Z,100.00
2022-11-04T01:48:45.380Z,100.00
2022-11-04T01:54:09.062Z,100.00
2022-11-04T01:59:35.831Z,100.00
2022-11-04T02:04:57.694Z,100.00
2022-11-04T02:10:22.726Z,100.00
2022-11-04T02:16:11.550Z,100.00
2022-11-04T02:22:01.273Z,100.00
2022-11-04T02:27:41.738Z,100.00
2022-11-04T02:33:20.648Z,100.00
2022-11-04T02:38:53.624Z,100.00
2022-11-04T02:44:24.620Z,100.00
2022-11-04T02:49:52.148Z,100.00
2022-11-04T02:55:22.802Z,100.00
2022-11-04T03:00:46.636Z,100.00
2022-11-04T03:06:13.195Z,100.00
2022-11-04T03:11:36.239Z,100.00
2022-11-04T03:17:03.093Z,100.00
2022-11-04T03:22:36.517Z,100.00
2022-11-04T03:28:18.928Z,100.00
2022-11-04T03:33:43.381Z,100.00
2022-11-04T03:39:05.592Z,100.00
2022-11-04T03:44:29.463Z,99.91
2022-11-04T03:50:14.325Z,100.00
2022-11-04T03:55:55.018Z,100.00
2022-11-04T04:01:38.376Z,99.87
2022-11-04T04:07:16.387Z,100.00
2022-11-04T04:12:41.406Z,100.00
2022-11-04T04:18:09.166Z,100.00
2022-11-04T04:23:34.409Z,100.00
2022-11-04T04:28:58.971Z,100.00
2022-11-04T04:34:27.069Z,100.00
2022-11-04T04:39:53.137Z,100.00
2022-11-04T04:45:40.518Z,100.00
2022-11-04T04:51:02.429Z,100.00
2022-11-04T04:56:24.240Z,100.00
2022-11-04T05:01:46.242Z,100.00
2022-11-04T05:07:08.196Z,99.69
2022-11-04T05:12:30.026Z,99.14
2022-11-04T05:17:59.957Z,98.83
2022-11-04T05:23:21.876Z,100.00
2022-11-04T05:28:43.686Z,100.00
2022-11-04T05:34:05.516Z,99.71
2022-11-04T05:39:27.370Z,100.00
2022-11-04T05:44:49.197Z,100.00
2022-11-04T05:50:11.350Z,100.00
2022-11-04T05:55:33.159Z,100.00
2022-11-04T06:00:55.019Z,100.00
2022-11-04T06:06:16.908Z,98.85
2022-11-04T06:11:39.473Z,99.20
2022-11-04T06:17:03.378Z,93.88
2022-11-04T06:22:25.240Z,97.18
2022-11-04T06:27:47.349Z,96.30
2022-11-04T06:33:09.147Z,95.37
2022-11-04T06:38:32.971Z,96.24
2022-11-04T06:43:54.813Z,95.42
2022-11-04T06:49:21.783Z,95.42
2022-11-04T06:54:43.636Z,95.74
2022-11-04T07:00:06.591Z,93.92
2022-11-04T07:05:28.539Z,94.78
2022-11-04T07:10:50.363Z,95.23
2022-11-04T07:16:13.162Z,92.97
2022-11-04T07:21:35.040Z,92.19
2022-11-04T07:26:56.949Z,91.76
2022-11-04T07:32:18.829Z,91.56
2022-11-04T07:37:40.954Z,90.95
2022-11-04T07:43:03.030Z,90.38
2022-11-04T07:48:24.853Z,88.91
2022-11-04T07:53:46.899Z,88.16
2022-11-04T07:59:08.843Z,87.72
2022-11-04T08:04:30.660Z,87.29
2022-11-04T08:09:52.479Z,86.55
2022-11-04T08:15:14.352Z,86.58
2022-11-04T08:20:36.188Z,86.73
2022-11-04T08:25:58.520Z,85.76
2022-11-04T08:31:21.569Z,85.38
2022-11-04T08:36:43.351Z,85.32
2022-11-04T08:42:05.320Z,85.37
2022-11-04T08:47:27.169Z,86.06
2022-11-04T08:52:49.010Z,85.83
2022-11-04T08:58:11.082Z,87.03
2022-11-04T09:03:33.364Z,86.50
2022-11-04T09:08:55.303Z,86.01
2022-11-04T09:14:17.140Z,86.41
2022-11-04T09:19:38.899Z,86.60
2022-11-04T09:25:00.857Z,86.68
2022-11-04T09:30:22.669Z,85.61
2022-11-04T09:35:44.500Z,84.63
2022-11-04T09:41:47.460Z,84.00
2022-11-04T09:47:12.392Z,85.16
2022-11-04T09:52:41.978Z,83.68
2022-11-04T09:58:04.114Z,85.70
2022-11-04T10:03:53.158Z,84.92
2022-11-04T10:09:38.199Z,85.76
2022-11-04T10:15:34.226Z,83.14
2022-11-04T10:21:21.985Z,80.54
2022-11-04T10:27:09.733Z,81.31
2022-11-04T10:32:45.989Z,77.92
2022-11-04T10:38:19.331Z,78.38
2022-11-04T10:43:42.130Z,78.67
2022-11-04T10:49:54.709Z,77.70
2022-11-04T10:55:49.217Z,73.98
2022-11-04T11:01:31.904Z,74.49
2022-11-04T11:06:55.955Z,72.11
2022-11-04T11:12:51.492Z,72.80
2022-11-04T11:18:18.502Z,71.94
2022-11-04T11:23:49.648Z,70.59
2022-11-04T11:29:11.900Z,69.95
2022-11-04T11:34:38.796Z,67.82
2022-11-04T11:40:00.626Z,68.66
2022-11-04T11:45:23.757Z,65.80
2022-11-04T11:50:55.055Z,65.68
2022-11-04T11:57:07.415Z,66.68
2022-11-04T12:02:36.068Z,66.27
2022-11-04T12:14:18.913Z,64.02
2022-11-04T12:20:02.619Z,62.66
2022-11-04T12:25:47.687Z,63.74
2022-11-04T12:31:20.440Z,64.00
2022-11-04T12:36:49.860Z,64.51
2022-11-04T12:42:29.674Z,64.52
2022-11-04T12:48:07.371Z,62.88
2022-11-04T12:53:39.396Z,62.98
2022-11-04T12:59:07.287Z,63.90
2022-11-04T13:04:43.908Z,62.90
2022-11-04T13:10:07.605Z,65.01
2022-11-04T13:15:35.841Z,63.85
2022-11-04T13:21:09.538Z,64.91
2022-11-04T13:26:32.386Z,64.34
2022-11-04T13:32:12.491Z,63.91
2022-11-04T13:37:45.094Z,64.67
2022-11-04T13:43:17.887Z,65.45
2022-11-04T13:49:00.586Z,65.23
2022-11-04T13:54:33.488Z,65.96
2022-11-04T14:00:13.635Z,66.37
2022-11-04T14:05:41.541Z,67.01
2022-11-04T14:11:07.488Z,68.05
2022-11-04T14:16:29.245Z,68.98
2022-11-04T14:22:05.920Z,68.64
2022-11-04T14:27:38.972Z,68.02
2022-11-04T14:33:18.493Z,68.87
2022-11-04T14:38:41.260Z,69.93
2022-11-04T14:44:12.351Z,71.21
2022-11-04T14:49:46.190Z,71.98
2022-11-04T14:55:15.710Z,71.88
2022-11-04T15:00:51.388Z,74.08
2022-11-04T15:06:13.455Z,74.26
2022-11-04T15:11:39.756Z,75.54
2022-11-04T15:17:01.742Z,76.48
2022-11-04T15:22:24.171Z,77.45
2022-11-04T15:27:46.089Z,78.31
2022-11-04T15:33:16.268Z,79.21
2022-11-04T15:38:39.444Z,79.66
2022-11-04T15:44:01.839Z,80.14
2022-11-04T15:49:34.067Z,80.47
2022-11-04T15:54:58.308Z,81.19
2022-11-04T16:00:23.332Z,82.22
2022-11-04T16:06:00.648Z,81.94
2022-11-04T16:11:22.466Z,81.39
2022-11-04T16:16:50.645Z,82.20
2022-11-04T16:22:21.222Z,82.06
2022-11-04T16:27:45.549Z,82.87
2022-11-04T16:33:10.792Z,82.86
2022-11-04T16:38:32.844Z,84.09
2022-11-04T16:43:55.543Z,83.82
2022-11-04T16:49:19.392Z,84.35
2022-11-04T16:54:41.433Z,83.33
2022-11-04T17:00:05.075Z,84.14
2022-11-04T17:05:26.938Z,84.42
2022-11-04T17:10:49.243Z,84.41
2022-11-04T17:16:13.707Z,84.54
2022-11-04T17:21:35.570Z,83.50
2022-11-04T17:26:57.445Z,84.11
2022-11-04T17:32:19.280Z,83.42
2022-11-04T17:37:41.451Z,84.65
2022-11-04T17:43:06.954Z,84.19
2022-11-04T17:48:33.183Z,86.20
2022-11-04T17:53:54.969Z,84.40
2022-11-04T17:59:17.309Z,84.48
2022-11-04T18:04:39.130Z,84.63
2022-11-04T18:10:00.926Z,84.85
2022-11-04T18:15:22.777Z,85.12
2022-11-04T18:20:44.639Z,85.39
2022-11-04T18:26:10.114Z,85.66
2022-11-04T18:31:34.639Z,85.20
2022-11-04T18:36:56.546Z,84.67
2022-11-04T18:42:18.372Z,84.86
2022-11-04T18:47:40.349Z,85.44
2022-11-04T18:53:02.298Z,84.51
2022-11-04T18:58:24.106Z,84.46
2022-11-04T19:03:46.491Z,84.35
2022-11-04T19:09:40.665Z,84.64
2022-11-04T19:14:53.104Z,85.31
2022-11-04T19:20:14.917Z,85.40
2022-11-04T19:25:41.602Z,85.91
2022-11-04T19:31:03.710Z,84.68
2022-11-04T19:36:26.022Z,85.90
2022-11-04T19:41:47.858Z,85.09
2022-11-04T19:47:09.707Z,85.21
2022-11-04T19:52:31.547Z,84.96
2022-11-04T19:57:53.394Z,85.67
2022-11-04T20:03:15.268Z,87.04
2022-11-04T20:08:38.513Z,87.04
2022-11-04T20:14:07.525Z,87.32
2022-11-04T20:19:29.760Z,87.81
2022-11-04T20:24:51.556Z,87.12
2022-11-04T20:30:13.429Z,89.11
2022-11-04T20:35:35.247Z,88.28
2022-11-04T20:41:03.066Z,88.49
2022-11-04T20:46:30.376Z,89.11
2022-11-04T20:51:55.362Z,89.55
2022-11-04T20:57:17.440Z,89.31
2022-11-04T21:02:39.300Z,89.17
2022-11-04T21:08:01.193Z,90.47
2022-11-04T21:13:23.077Z,91.99
2022-11-04T21:18:45.687Z,91.43
2022-11-04T21:24:07.822Z,90.92
2022-11-04T21:29:29.638Z,92.74
2022-11-04T21:34:51.446Z,90.93
2022-11-04T21:40:13.291Z,92.18
2022-11-04T21:45:35.381Z,92.17
2022-11-04T21:51:00.766Z,92.52
2022-11-04T21:56:28.345Z,92.27
2022-11-04T22:01:50.287Z,91.26
2022-11-04T22:07:12.196Z,91.09
2022-11-04T22:12:34.050Z,92.05
2022-11-04T22:17:55.931Z,91.19
2022-11-04T22:23:17.872Z,92.33
2022-11-04T22:28:39.852Z,91.65
2022-11-04T22:34:02.304Z,91.91
2022-11-04T22:39:24.130Z,92.17
2022-11-04T22:44:45.994Z,92.15
2022-11-04T22:50:08.224Z,91.49
2022-11-04T22:55:30.044Z,91.46
2022-11-04T23:01:13.499Z,92.40
2022-11-04T23:06:35.349Z,92.00
2022-11-04T23:11:57.311Z,90.85
2022-11-04T23:17:21.902Z,91.66
2022-11-04T23:22:43.753Z,91.51
2022-11-04T23:28:05.586Z,90.77
2022-11-04T23:33:27.589Z,91.47
2022-11-04T23:38:50.512Z,92.44
2022-11-04T23:44:12.415Z,92.07
2022-11-04T23:49:34.231Z,91.24
2022-11-04T23:54:56.032Z,90.86
